Time,TemperatureF,DewpointF,PressureIn,WindDirection,WindDirectionDegrees,WindSpeedMPH,WindSpeedGustMPH,Humidity,HourlyPrecipIn,Conditions,Clouds,dailyrainin,SoftwareType,DateUTC
2013-05-23 00:00:00,72.1,70.3,29.99,SSW,196,10.0,12.0,94,0.00,,---,0.00,VWS V14.01,2013-05-23 04:00:00,
2013-05-23 00:01:00,72.1,70.3,29.99,SSW,192,9.0,12.0,94,0.00,,---,0.00,VWS V14.01,2013-05-23 04:01:00,
2013-05-23 00:02:00,72.1,70.3,29.99,SSW,192,11.0,12.0,94,0.00,,---,0.00,VWS V14.01,2013-05-23 04:02:00,
2013-05-23 00:03:00,72.1,70.3,29.99,SSW,193,8.0,12.0,94,0.00,,---,0.00,VWS V14.01,2013-05-23 04:03:00,
2013-05-23 00:08:00,72.1,70.3,29.99,South,186,11.0,12.0,94,0.00,,---,0.00,VWS V14.01,2013-05-23 04:08:00,
2013-05-23 00:13:00,72.1,70.3,29.99,SSW,197,7.0,12.0,94,0.00,,---,0.00,VWS V14.01,2013-05-23 04:13:00,
2013-05-23 00:18:00,72.1,70.6,29.99,SSW,198,7.0,12.0,95,0.00,,---,0.00,VWS V14.01,2013-05-23 04:18:00,
2013-05-23 00:23:00,72.1,70.6,29.98,SSW,197,10.0,12.0,95,0.00,,---,0.00,VWS V14.01,2013-05-23 04:23:00,
2013-05-23 00:28:00,72.1,70.6,29.99,SSW,192,5.0,5.0,95,0.00,,---,0.00,VWS V14.01,2013-05-23 04:28:00,
2013-05-23 00:33:00,72.1,70.6,29.99,SSW,196,6.0,12.0,95,0.00,,---,0.00,VWS V14.01,2013-05-23 04:33:00,
2013-05-23 00:38:00,72.2,70.7,29.99,SSW,193,9.0,13.0,95,0.00,,---,0.00,VWS V14.01,2013-05-23 04:38:00,
2013-05-23 00:43:00,72.3,70.8,29.99,SSW,198,9.0,14.0,95,0.01,,---,0.01,VWS V14.01,2013-05-23 04:43:00,
2013-05-23 00:48:00,72.3,70.8,29.99,SSW,200,7.0,14.0,95,0.01,,---,0.01,VWS V14.01,2013-05-23 04:48:00,
2013-05-23 00:53:00,72.3,70.8,29.98,SSW,198,5.0,14.0,95,0.01,,---,0.01,VWS V14.01,2013-05-23 04:53:00,
2013-05-23 00:58:00,72.0,70.5,29.98,SW,219,5.0,6.0,95,0.02,,---,0.02,VWS V14.01,2013-05-23 04:58:00,
2013-05-23 01:03:00,71.7,70.2,29.98,SSW,203,6.0,12.0,95,0.03,,---,0.03,VWS V14.01,2013-05-23 05:03:00,
2013-05-23 01:08:00,71.6,70.1,29.98,SSW,198,7.0,12.0,95,0.03,,---,0.03,VWS V14.01,2013-05-23 05:08:00,
2013-05-23 01:13:00,71.6,70.1,29.98,South,190,9.0,12.0,95,0.04,,---,0.04,VWS V14.01,2013-05-23 05:13:00,
2013-05-23 01:18:00,71.6,70.1,29.98,SSW,210,8.0,12.0,95,0.04,,---,0.04,VWS V14.01,2013-05-23 05:18:00,
2013-05-23 01:23:00,71.6,70.1,29.98,SSW,196,5.0,12.0,95,0.04,,---,0.04,VWS V14.01,2013-05-23 05:23:00,
2013-05-23 01:28:00,71.6,70.1,29.97,SSW,194,3.0,6.0,95,0.04,,---,0.04,VWS V14.01,2013-05-23 05:28:00,
2013-05-23 01:33:00,71.7,70.2,29.97,South,191,11.0,11.0,95,0.04,,---,0.04,VWS V14.01,2013-05-23 05:33:00,
2013-05-23 01:38:00,71.7,70.5,29.97,South,187,10.0,12.0,96,0.04,,---,0.04,VWS V14.01,2013-05-23 05:38:00,
2013-05-23 01:43:00,71.7,70.5,29.97,South,190,8.0,12.0,96,0.04,,---,0.04,VWS V14.01,2013-05-23 05:43:00,
2013-05-23 01:48:00,71.7,70.5,29.96,SSW,202,10.0,12.0,96,0.04,,---,0.04,VWS V14.01,2013-05-23 05:48:00,
2013-05-23 01:53:00,71.8,70.6,29.96,South,188,6.0,12.0,96,0.04,,---,0.04,VWS V14.01,2013-05-23 05:53:00,
2013-05-23 01:58:00,71.8,70.6,29.96,South,182,6.0,8.0,96,0.02,,---,0.04,VWS V14.01,2013-05-23 05:58:00,
2013-05-23 02:04:00,71.8,70.6,29.96,SSW,198,5.0,10.0,96,0.02,,---,0.04,VWS V14.01,2013-05-23 06:04:00,
2013-05-23 02:09:00,71.8,70.6,29.96,South,186,8.0,11.0,96,0.02,,---,0.04,VWS V14.01,2013-05-23 06:09:00,
2013-05-23 02:14:00,71.8,70.6,29.96,SSW,200,7.0,12.0,96,0.02,,---,0.04,VWS V14.01,2013-05-23 06:14:00,
2013-05-23 02:19:00,71.8,70.6,29.96,SSW,194,10.0,13.0,96,0.02,,---,0.04,VWS V14.01,2013-05-23 06:19:00,
2013-05-23 02:24:00,71.7,70.5,29.96,South,188,11.0,14.0,96,0.02,,---,0.04,VWS V14.01,2013-05-23 06:24:00,
2013-05-23 02:29:00,71.7,70.5,29.96,SSW,197,11.0,13.0,96,0.00,,---,0.04,VWS V14.01,2013-05-23 06:29:00,
2013-05-23 02:34:00,71.7,70.5,29.96,SSW,195,11.0,15.0,96,0.00,,---,0.04,VWS V14.01,2013-05-23 06:34:00,
2013-05-23 02:39:00,71.8,70.6,29.96,South,187,12.0,15.0,96,0.00,,---,0.04,VWS V14.01,2013-05-23 06:39:00,
2013-05-23 02:44:00,71.7,70.5,29.95,SSW,197,10.0,15.0,96,0.00,,---,0.04,VWS V14.01,2013-05-23 06:44:00,
2013-05-23 02:49:00,71.8,70.6,29.95,SSW,196,10.0,15.0,96,0.00,,---,0.04,VWS V14.01,2013-05-23 06:49:00,
2013-05-23 02:54:00,71.7,70.5,29.95,SSW,205,7.0,15.0,96,0.00,,---,0.04,VWS V14.01,2013-05-23 06:54:00,
2013-05-23 02:59:00,71.7,70.5,29.95,South,191,6.0,13.0,96,0.00,,---,0.04,VWS V14.01,2013-05-23 06:59:00,
2013-05-23 03:04:00,71.8,70.6,29.95,SSW,202,18.0,18.0,96,0.00,,---,0.04,VWS V14.01,2013-05-23 07:04:00,
2013-05-23 03:09:00,71.7,70.5,29.96,SSW,202,11.0,18.0,96,0.00,,---,0.04,VWS V14.01,2013-05-23 07:09:00,
2013-05-23 03:14:00,71.6,70.4,29.95,SW,215,10.0,18.0,96,0.00,,---,0.04,VWS V14.01,2013-05-23 07:14:00,
2013-05-23 03:19:00,71.5,70.3,29.95,SW,225,10.0,18.0,96,0.00,,---,0.04,VWS V14.01,2013-05-23 07:19:00,
2013-05-23 03:25:00,71.3,70.1,29.95,SSW,197,8.0,18.0,96,0.00,,---,0.04,VWS V14.01,2013-05-23 07:25:00,
2013-05-23 03:30:00,71.3,70.1,29.95,SSW,213,10.0,13.0,96,0.00,,---,0.04,VWS V14.01,2013-05-23 07:30:00,
2013-05-23 03:35:00,71.2,69.7,29.95,SW,229,6.0,16.0,95,0.00,,---,0.04,VWS V14.01,2013-05-23 07:35:00,
2013-05-23 03:40:00,71.2,70.0,29.95,SW,230,8.0,16.0,96,0.00,,---,0.04,VWS V14.01,2013-05-23 07:40:00,
2013-05-23 03:45:00,71.3,70.1,29.95,SSW,209,11.0,16.0,96,0.00,,---,0.04,VWS V14.01,2013-05-23 07:45:00,
2013-05-23 03:50:00,71.3,69.8,29.95,SSW,205,6.0,16.0,95,0.00,,---,0.04,VWS V14.01,2013-05-23 07:50:00,
2013-05-23 03:55:00,71.4,69.9,29.95,SW,219,9.0,16.0,95,0.00,,---,0.04,VWS V14.01,2013-05-23 07:55:00,
2013-05-23 04:00:00,71.4,69.9,29.95,SSW,211,6.0,13.0,95,0.00,,---,0.04,VWS V14.01,2013-05-23 08:00:00,
2013-05-23 04:05:00,71.4,69.9,29.95,SSW,203,11.0,13.0,95,0.00,,---,0.04,VWS V14.01,2013-05-23 08:05:00,
2013-05-23 04:10:00,71.6,70.4,29.95,SW,229,14.0,17.0,96,0.00,,---,0.04,VWS V14.01,2013-05-23 08:10:00,
2013-05-23 04:15:00,71.4,69.9,29.96,SW,226,11.0,24.0,95,0.00,,---,0.04,VWS V14.01,2013-05-23 08:15:00,
2013-05-23 04:20:00,70.8,69.3,29.96,SW,236,11.0,24.0,95,0.00,,---,0.04,VWS V14.01,2013-05-23 08:20:00,
2013-05-23 04:25:00,70.5,69.0,29.96,SW,223,12.0,24.0,95,0.00,,---,0.04,VWS V14.01,2013-05-23 08:25:00,
2013-05-23 04:30:00,70.3,68.8,29.95,SW,227,10.0,15.0,95,0.00,,---,0.04,VWS V14.01,2013-05-23 08:30:00,
2013-05-23 04:35:00,70.2,68.7,29.95,SW,225,6.0,15.0,95,0.00,,---,0.04,VWS V14.01,2013-05-23 08:35:00,
2013-05-23 04:40:00,70.1,68.6,29.95,West,269,10.0,15.0,95,0.00,,---,0.04,VWS V14.01,2013-05-23 08:40:00,
2013-05-23 04:45:00,70.1,68.6,29.95,West,262,7.0,15.0,95,0.00,,---,0.04,VWS V14.01,2013-05-23 08:45:00,
2013-05-23 04:50:00,70.0,68.5,29.94,WSW,257,11.0,15.0,95,0.00,,---,0.04,VWS V14.01,2013-05-23 08:50:00,
2013-05-23 04:55:00,69.9,68.4,29.95,SW,227,10.0,18.0,95,0.00,,---,0.04,VWS V14.01,2013-05-23 08:55:00,
2013-05-23 05:01:00,70.0,68.8,29.94,SW,226,10.0,18.0,96,0.01,,---,0.05,VWS V14.01,2013-05-23 09:01:00,
2013-05-23 05:06:00,70.1,68.9,29.94,West,270,12.0,18.0,96,0.01,,---,0.05,VWS V14.01,2013-05-23 09:06:00,
2013-05-23 05:11:00,70.0,68.8,29.94,West,269,10.0,19.0,96,0.01,,---,0.05,VWS V14.01,2013-05-23 09:11:00,
2013-05-23 05:16:00,70.0,68.8,29.94,West,261,11.0,19.0,96,0.01,,---,0.05,VWS V14.01,2013-05-23 09:16:00,
2013-05-23 05:21:00,69.9,68.7,29.94,SW,227,10.0,19.0,96,0.01,,---,0.05,VWS V14.01,2013-05-23 09:21:00,
2013-05-23 05:26:00,69.8,68.6,29.94,WSW,256,7.0,19.0,96,0.01,,---,0.05,VWS V14.01,2013-05-23 09:26:00,
2013-05-23 05:31:00,69.7,68.5,29.95,SW,229,6.0,12.0,96,0.01,,---,0.05,VWS V14.01,2013-05-23 09:31:00,
2013-05-23 05:36:00,69.7,68.5,29.95,West,266,6.0,12.0,96,0.01,,---,0.05,VWS V14.01,2013-05-23 09:36:00,
2013-05-23 05:41:00,69.8,68.6,29.95,WSW,242,7.0,12.0,96,0.01,,---,0.05,VWS V14.01,2013-05-23 09:41:00,
2013-05-23 05:46:00,69.9,68.7,29.95,West,262,9.0,12.0,96,0.01,,---,0.05,VWS V14.01,2013-05-23 09:46:00,
2013-05-23 05:51:00,70.0,68.8,29.95,SW,232,11.0,13.0,96,0.01,,---,0.05,VWS V14.01,2013-05-23 09:51:00,
2013-05-23 05:56:00,70.0,68.8,29.95,WSW,242,4.0,13.0,96,0.01,,---,0.05,VWS V14.01,2013-05-23 09:56:00,
2013-05-23 06:01:00,69.9,68.7,29.95,SW,219,7.0,9.0,96,0.01,,---,0.05,VWS V14.01,2013-05-23 10:01:00,
2013-05-23 06:06:00,69.6,68.4,29.95,SW,215,6.0,10.0,96,0.01,,---,0.05,VWS V14.01,2013-05-23 10:06:00,
2013-05-23 06:11:00,69.5,68.3,29.95,SW,215,8.0,13.0,96,0.01,,---,0.05,VWS V14.01,2013-05-23 10:11:00,
2013-05-23 06:16:00,69.5,68.3,29.96,SW,225,8.0,14.0,96,0.01,,---,0.05,VWS V14.01,2013-05-23 10:16:00,
2013-05-23 06:21:00,69.6,68.4,29.96,SW,227,7.0,14.0,96,0.01,,---,0.05,VWS V14.01,2013-05-23 10:21:00,
2013-05-23 06:27:00,69.6,68.4,29.96,WSW,240,5.0,14.0,96,0.01,,---,0.05,VWS V14.01,2013-05-23 10:27:00,
2013-05-23 06:32:00,69.6,68.4,29.96,SW,228,5.0,9.0,96,0.00,,---,0.05,VWS V14.01,2013-05-23 10:32:00,
2013-05-23 06:37:00,69.7,68.5,29.96,SW,221,7.0,10.0,96,0.00,,---,0.05,VWS V14.01,2013-05-23 10:37:00,
2013-05-23 06:42:00,69.8,68.9,29.96,SW,225,9.0,13.0,97,0.04,,---,0.09,VWS V14.01,2013-05-23 10:42:00,
2013-05-23 06:47:00,69.9,69.0,29.95,SW,223,6.0,13.0,97,0.04,,---,0.09,VWS V14.01,2013-05-23 10:47:00,
2013-05-23 06:52:00,69.9,69.0,29.95,West,260,4.0,13.0,97,0.04,,---,0.09,VWS V14.01,2013-05-23 10:52:00,
2013-05-23 06:57:00,69.9,69.0,29.96,West,268,5.0,13.0,97,0.04,,---,0.09,VWS V14.01,2013-05-23 10:57:00,
2013-05-23 07:02:00,70.0,69.1,29.96,West,267,10.0,10.0,97,0.04,,---,0.09,VWS V14.01,2013-05-23 11:02:00,
2013-05-23 07:07:00,70.0,69.1,29.96,West,259,6.0,10.0,97,0.04,,---,0.09,VWS V14.01,2013-05-23 11:07:00,
2013-05-23 07:12:00,69.8,68.6,29.96,West,261,4.0,10.0,96,0.04,,---,0.09,VWS V14.01,2013-05-23 11:12:00,
2013-05-23 07:17:00,69.8,68.9,29.96,West,259,4.0,10.0,97,0.04,,---,0.09,VWS V14.01,2013-05-23 11:17:00,
2013-05-23 07:22:00,70.0,69.1,29.96,SW,221,5.0,10.0,97,0.04,,---,0.09,VWS V14.01,2013-05-23 11:22:00,
2013-05-23 07:27:00,70.3,69.4,29.97,WSW,253,2.0,4.0,97,0.04,,---,0.09,VWS V14.01,2013-05-23 11:27:00,
2013-05-23 07:32:00,70.4,69.5,29.97,West,266,4.0,10.0,97,0.04,,---,0.09,VWS V14.01,2013-05-23 11:32:00,
2013-05-23 07:37:00,70.4,69.5,29.96,WSW,242,0.0,10.0,97,0.04,,---,0.09,VWS V14.01,2013-05-23 11:37:00,
2013-05-23 07:43:00,70.5,69.6,29.97,WSW,252,3.0,10.0,97,0.04,,---,0.09,VWS V14.01,2013-05-23 11:43:00,
2013-05-23 07:48:00,70.6,69.7,29.97,West,267,3.0,10.0,97,0.04,,---,0.09,VWS V14.01,2013-05-23 11:48:00,
2013-05-23 07:53:00,70.7,69.8,29.97,SW,235,4.0,10.0,97,0.04,,---,0.09,VWS V14.01,2013-05-23 11:53:00,
2013-05-23 07:58:00,70.8,69.9,29.97,SW,229,4.0,5.0,97,0.00,,---,0.09,VWS V14.01,2013-05-23 11:58:00,
2013-05-23 08:03:00,70.9,70.0,29.97,WSW,239,2.0,6.0,97,0.00,,---,0.09,VWS V14.01,2013-05-23 12:03:00,
2013-05-23 08:08:00,70.9,70.0,29.97,WSW,241,2.0,10.0,97,0.00,,---,0.09,VWS V14.01,2013-05-23 12:08:00,
2013-05-23 08:13:00,70.8,69.9,29.97,SW,229,2.0,10.0,97,0.00,,---,0.09,VWS V14.01,2013-05-23 12:13:00,
2013-05-23 08:18:00,70.7,69.8,29.97,West,263,3.0,10.0,97,0.00,,---,0.09,VWS V14.01,2013-05-23 12:18:00,
2013-05-23 08:23:00,70.8,69.9,29.97,WSW,248,3.0,10.0,97,0.00,,---,0.09,VWS V14.01,2013-05-23 12:23:00,
2013-05-23 08:28:00,70.8,69.9,29.97,SSW,211,7.0,7.0,97,0.00,,---,0.09,VWS V14.01,2013-05-23 12:28:00,
2013-05-23 08:33:00,70.7,69.5,29.97,SSW,207,4.0,9.0,96,0.00,,---,0.09,VWS V14.01,2013-05-23 12:33:00,
2013-05-23 08:38:00,70.6,69.7,29.97,SSW,212,4.0,9.0,97,0.00,,---,0.09,VWS V14.01,2013-05-23 12:38:00,
2013-05-23 08:43:00,70.6,69.7,29.97,SSW,196,3.0,9.0,97,0.00,,---,0.09,VWS V14.01,2013-05-23 12:43:00,
2013-05-23 08:48:00,70.7,69.8,29.97,SSW,194,3.0,9.0,97,0.00,,---,0.09,VWS V14.01,2013-05-23 12:48:00,
2013-05-23 08:53:00,70.9,70.0,29.97,SSW,197,5.0,9.0,97,0.00,,---,0.09,VWS V14.01,2013-05-23 12:53:00,
2013-05-23 08:58:00,71.0,70.1,29.97,SSW,205,3.0,6.0,97,0.00,,---,0.09,VWS V14.01,2013-05-23 12:58:00,
2013-05-23 09:03:00,71.1,70.2,29.97,SSW,196,5.0,7.0,97,0.00,,---,0.09,VWS V14.01,2013-05-23 13:03:00,
2013-05-23 09:08:00,71.2,70.3,29.96,SSW,202,6.0,7.0,97,0.00,,---,0.09,VWS V14.01,2013-05-23 13:08:00,
2013-05-23 09:13:00,71.5,70.6,29.96,SW,216,5.0,10.0,97,0.00,,---,0.09,VWS V14.01,2013-05-23 13:13:00,
2013-05-23 09:20:00,71.5,70.3,29.96,WSW,242,5.0,13.0,96,0.00,,---,0.09,VWS V14.01,2013-05-23 13:20:00,
2013-05-23 09:25:00,71.6,70.4,29.95,SW,217,11.0,13.0,96,0.00,,---,0.09,VWS V14.01,2013-05-23 13:25:00,
2013-05-23 09:30:00,71.6,70.4,29.95,SW,231,10.0,11.0,96,0.00,,---,0.09,VWS V14.01,2013-05-23 13:30:00,
2013-05-23 09:35:00,71.7,70.5,29.95,SW,220,4.0,11.0,96,0.00,,---,0.09,VWS V14.01,2013-05-23 13:35:00,
2013-05-23 09:40:00,72.2,71.0,29.95,SW,223,5.0,11.0,96,0.00,,---,0.09,VWS V14.01,2013-05-23 13:40:00,
2013-05-23 09:45:00,72.6,71.4,29.95,SW,217,3.0,11.0,96,0.00,,---,0.09,VWS V14.01,2013-05-23 13:45:00,
2013-05-23 09:50:00,73.0,71.8,29.94,SSW,207,6.0,11.0,96,0.00,,---,0.09,VWS V14.01,2013-05-23 13:50:00,
2013-05-23 09:55:00,73.0,71.5,29.94,SSW,197,5.0,11.0,95,0.00,,---,0.09,VWS V14.01,2013-05-23 13:55:00,
2013-05-23 10:00:00,73.0,71.2,29.94,South,186,6.0,8.0,94,0.00,,---,0.09,VWS V14.01,2013-05-23 14:00:00,
2013-05-23 10:05:00,73.0,71.2,29.94,SSW,198,4.0,8.0,94,0.00,,---,0.09,VWS V14.01,2013-05-23 14:05:00,
2013-05-23 10:10:00,72.9,71.1,29.95,SSW,202,4.0,9.0,94,0.00,,---,0.09,VWS V14.01,2013-05-23 14:10:00,
2013-05-23 10:15:00,72.8,70.7,29.94,SSW,200,6.0,9.0,93,0.00,,---,0.09,VWS V14.01,2013-05-23 14:15:00,
2013-05-23 10:20:00,72.6,70.5,29.94,SSW,204,7.0,9.0,93,0.00,,---,0.09,VWS V14.01,2013-05-23 14:20:00,
2013-05-23 10:25:00,72.6,70.5,29.94,South,184,6.0,10.0,93,0.00,,---,0.09,VWS V14.01,2013-05-23 14:25:00,
2013-05-23 10:30:00,72.6,70.5,29.94,SSW,194,5.0,7.0,93,0.00,,---,0.09,VWS V14.01,2013-05-23 14:30:00,
2013-05-23 10:35:00,72.7,70.6,29.94,SSW,196,7.0,10.0,93,0.00,,---,0.09,VWS V14.01,2013-05-23 14:35:00,
2013-05-23 10:40:00,72.6,70.5,29.94,SSW,201,9.0,13.0,93,0.00,,---,0.09,VWS V14.01,2013-05-23 14:40:00,
2013-05-23 10:45:00,72.7,70.6,29.94,SSW,196,6.0,13.0,93,0.00,,---,0.09,VWS V14.01,2013-05-23 14:45:00,
2013-05-23 10:50:00,72.9,70.8,29.94,SSW,194,7.0,13.0,93,0.00,,---,0.09,VWS V14.01,2013-05-23 14:50:00,
2013-05-23 10:55:00,73.1,71.0,29.94,SSW,202,7.0,13.0,93,0.00,,---,0.09,VWS V14.01,2013-05-23 14:55:00,
2013-05-23 11:01:00,73.5,71.4,29.94,SSW,193,6.0,12.0,93,0.00,,---,0.09,VWS V14.01,2013-05-23 15:01:00,
2013-05-23 11:06:00,73.8,71.7,29.94,SSW,200,8.0,15.0,93,0.00,,---,0.09,VWS V14.01,2013-05-23 15:06:00,
2013-05-23 11:11:00,74.2,71.7,29.94,SSW,209,8.0,15.0,92,0.00,,---,0.09,VWS V14.01,2013-05-23 15:11:00,
2013-05-23 11:16:00,74.4,71.9,29.94,SSW,200,6.0,15.0,92,0.00,,---,0.09,VWS V14.01,2013-05-23 15:16:00,
2013-05-23 11:21:00,74.6,71.8,29.94,SSW,211,11.0,15.0,91,0.00,,---,0.09,VWS V14.01,2013-05-23 15:21:00,
2013-05-23 11:26:00,74.8,71.7,29.94,SSW,194,9.0,15.0,90,0.00,,---,0.09,VWS V14.01,2013-05-23 15:26:00,
2013-05-23 11:31:00,75.3,72.5,29.94,SSW,198,5.0,11.0,91,0.00,,---,0.09,VWS V14.01,2013-05-23 15:31:00,
2013-05-23 11:36:00,75.7,72.6,29.94,SSW,196,5.0,13.0,90,0.00,,---,0.09,VWS V14.01,2013-05-23 15:36:00,
2013-05-23 11:41:00,76.0,72.5,29.94,SSW,207,6.0,13.0,89,0.00,,---,0.09,VWS V14.01,2013-05-23 15:41:00,
2013-05-23 11:46:00,76.3,72.8,29.94,SSW,195,11.0,13.0,89,0.00,,---,0.09,VWS V14.01,2013-05-23 15:46:00,
2013-05-23 11:51:00,76.1,72.3,29.94,SSW,193,12.0,13.0,88,0.00,,---,0.09,VWS V14.01,2013-05-23 15:51:00,
2013-05-23 11:56:00,76.1,72.3,29.94,SSW,192,12.0,13.0,88,0.00,,---,0.09,VWS V14.01,2013-05-23 15:56:00,
2013-05-23 12:02:00,76.1,72.3,29.94,SSW,192,4.0,11.0,88,0.00,,---,0.09,VWS V14.01,2013-05-23 16:02:00,
2013-05-23 12:07:00,76.3,72.5,29.94,SSW,192,10.0,11.0,88,0.00,,---,0.09,VWS V14.01,2013-05-23 16:07:00,
2013-05-23 12:12:00,76.3,72.2,29.93,SSW,201,11.0,13.0,87,0.00,,---,0.09,VWS V14.01,2013-05-23 16:12:00,
2013-05-23 12:17:00,76.5,72.3,29.94,SSW,197,12.0,15.0,87,0.00,,---,0.09,VWS V14.01,2013-05-23 16:17:00,
2013-05-23 12:22:00,76.5,72.3,29.93,South,190,8.0,15.0,87,0.00,,---,0.09,VWS V14.01,2013-05-23 16:22:00,
2013-05-23 12:27:00,76.5,72.3,29.93,SSW,202,7.0,15.0,87,0.00,,---,0.09,VWS V14.01,2013-05-23 16:27:00,
2013-05-23 12:32:00,76.6,72.4,29.93,SSE,166,6.0,11.0,87,0.00,,---,0.09,VWS V14.01,2013-05-23 16:32:00,
2013-05-23 12:37:00,76.8,72.6,29.93,SSW,192,9.0,11.0,87,0.00,,---,0.09,VWS V14.01,2013-05-23 16:37:00,
2013-05-23 12:42:00,76.8,72.3,29.93,SSW,202,10.0,13.0,86,0.00,,---,0.09,VWS V14.01,2013-05-23 16:42:00,
2013-05-23 12:47:00,76.9,72.4,29.92,SSW,193,11.0,13.0,86,0.00,,---,0.09,VWS V14.01,2013-05-23 16:47:00,
2013-05-23 12:52:00,77.1,72.6,29.92,SSW,198,7.0,13.0,86,0.00,,---,0.09,VWS V14.01,2013-05-23 16:52:00,
2013-05-23 12:57:00,77.1,72.2,29.92,SSW,198,7.0,13.0,85,0.00,,---,0.09,VWS V14.01,2013-05-23 16:57:00,
2013-05-23 13:02:00,77.1,72.2,29.92,SSW,197,9.0,10.0,85,0.00,,---,0.09,VWS V14.01,2013-05-23 17:02:00,
2013-05-23 13:07:00,77.1,72.2,29.92,South,187,10.0,12.0,85,0.00,,---,0.09,VWS V14.01,2013-05-23 17:07:00,
2013-05-23 13:12:00,77.0,72.2,29.91,SSW,194,10.0,13.0,85,0.00,,---,0.09,VWS V14.01,2013-05-23 17:12:00,
2013-05-23 13:17:00,77.1,72.2,29.91,South,169,3.0,13.0,85,0.00,,---,0.09,VWS V14.01,2013-05-23 17:17:00,
2013-05-23 13:22:00,77.4,72.5,29.91,South,184,9.0,13.0,85,0.00,,---,0.09,VWS V14.01,2013-05-23 17:22:00,
2013-05-23 13:27:00,77.6,72.7,29.91,South,171,14.0,14.0,85,0.00,,---,0.09,VWS V14.01,2013-05-23 17:27:00,
2013-05-23 13:32:00,77.8,72.9,29.91,SSE,149,8.0,14.0,85,0.00,,---,0.09,VWS V14.01,2013-05-23 17:32:00,
2013-05-23 13:37:00,77.9,73.0,29.91,South,186,8.0,14.0,85,0.00,,---,0.09,VWS V14.01,2013-05-23 17:37:00,
2013-05-23 13:42:00,78.1,73.2,29.91,South,176,8.0,14.0,85,0.00,,---,0.09,VWS V14.01,2013-05-23 17:42:00,
2013-05-23 13:47:00,78.3,73.4,29.90,SSW,193,8.0,14.0,85,0.00,,---,0.09,VWS V14.01,2013-05-23 17:47:00,
2013-05-23 13:53:00,78.4,73.2,29.91,South,171,3.0,14.0,84,0.00,,---,0.09,VWS V14.01,2013-05-23 17:53:00,
2013-05-23 13:58:00,78.4,72.8,29.90,South,189,10.0,11.0,83,0.00,,---,0.09,VWS V14.01,2013-05-23 17:58:00,
2013-05-23 14:03:00,78.3,72.7,29.90,SSW,194,10.0,12.0,83,0.00,,---,0.09,VWS V14.01,2013-05-23 18:03:00,
2013-05-23 14:08:00,78.2,72.6,29.90,South,191,9.0,13.0,83,0.00,,---,0.09,VWS V14.01,2013-05-23 18:08:00,
2013-05-23 14:13:00,78.2,73.0,29.90,South,191,6.0,14.0,84,0.00,,---,0.09,VWS V14.01,2013-05-23 18:13:00,
2013-05-23 14:18:00,78.5,73.3,29.89,SSW,197,11.0,14.0,84,0.00,,---,0.09,VWS V14.01,2013-05-23 18:18:00,
2013-05-23 14:23:00,78.5,72.9,29.89,SSW,195,12.0,14.0,83,0.00,,---,0.09,VWS V14.01,2013-05-23 18:23:00,
2013-05-23 14:28:00,78.5,72.9,29.89,SSW,195,10.0,13.0,83,0.00,,---,0.09,VWS V14.01,2013-05-23 18:28:00,
2013-05-23 14:33:00,78.7,73.1,29.89,SSW,192,6.0,13.0,83,0.00,,---,0.09,VWS V14.01,2013-05-23 18:33:00,
2013-05-23 14:38:00,78.9,73.3,29.89,SSW,192,12.0,14.0,83,0.00,,---,0.09,VWS V14.01,2013-05-23 18:38:00,
2013-05-23 14:43:00,78.8,72.8,29.88,SSW,201,7.0,14.0,82,0.00,,---,0.09,VWS V14.01,2013-05-23 18:43:00,
2013-05-23 14:48:00,78.7,73.1,29.88,SSW,205,12.0,15.0,83,0.00,,---,0.09,VWS V14.01,2013-05-23 18:48:00,
2013-05-23 14:53:00,78.7,72.8,29.88,SSW,194,12.0,15.0,82,0.00,,---,0.09,VWS V14.01,2013-05-23 18:53:00,
2013-05-23 14:58:00,78.7,73.1,29.88,SSW,192,14.0,14.0,83,0.00,,---,0.09,VWS V14.01,2013-05-23 18:58:00,
2013-05-23 15:03:00,79.0,73.4,29.88,SSW,204,13.0,14.0,83,0.00,,---,0.09,VWS V14.01,2013-05-23 19:03:00,
2013-05-23 15:08:00,78.9,72.9,29.87,SSW,205,12.0,14.0,82,0.00,,---,0.09,VWS V14.01,2013-05-23 19:08:00,
2013-05-23 15:13:00,78.8,72.8,29.87,SSW,208,15.0,15.0,82,0.00,,---,0.09,VWS V14.01,2013-05-23 19:13:00,
2013-05-23 15:18:00,78.7,72.8,29.87,SSW,207,8.0,17.0,82,0.00,,---,0.09,VWS V14.01,2013-05-23 19:18:00,
2013-05-23 15:23:00,78.2,71.9,29.87,SSW,207,15.0,19.0,81,0.00,,---,0.09,VWS V14.01,2013-05-23 19:23:00,
2013-05-23 15:28:00,77.3,71.7,29.87,SSW,205,12.0,15.0,83,0.00,,---,0.09,VWS V14.01,2013-05-23 19:28:00,
2013-05-23 15:33:00,77.0,71.8,29.87,SW,220,14.0,15.0,84,0.00,,---,0.09,VWS V14.01,2013-05-23 19:33:00,
2013-05-23 15:38:00,77.1,71.9,29.87,SSW,201,13.0,16.0,84,0.00,,---,0.09,VWS V14.01,2013-05-23 19:38:00,
2013-05-23 15:44:00,77.4,72.5,29.87,SSW,209,13.0,17.0,85,0.00,,---,0.09,VWS V14.01,2013-05-23 19:44:00,
2013-05-23 15:49:00,77.6,72.4,29.87,SSW,209,13.0,17.0,84,0.00,,---,0.09,VWS V14.01,2013-05-23 19:49:00,
2013-05-23 15:54:00,77.9,72.7,29.87,SW,218,13.0,17.0,84,0.00,,---,0.09,VWS V14.01,2013-05-23 19:54:00,
2013-05-23 15:59:00,77.9,72.3,29.86,SSW,209,12.0,19.0,83,0.00,,---,0.09,VWS V14.01,2013-05-23 19:59:00,
2013-05-23 16:04:00,77.2,72.0,29.86,SSW,209,13.0,19.0,84,0.00,,---,0.09,VWS V14.01,2013-05-23 20:04:00,
2013-05-23 16:09:00,77.1,72.2,29.86,SSW,197,10.0,19.0,85,0.00,,---,0.09,VWS V14.01,2013-05-23 20:09:00,
2013-05-23 16:14:00,77.2,72.3,29.86,SW,214,15.0,19.0,85,0.00,,---,0.09,VWS V14.01,2013-05-23 20:14:00,
2013-05-23 16:19:00,77.2,72.3,29.86,SSW,209,12.0,19.0,85,0.00,,---,0.09,VWS V14.01,2013-05-23 20:19:00,
2013-05-23 16:24:00,77.3,72.4,29.86,SW,219,13.0,19.0,85,0.00,,---,0.09,VWS V14.01,2013-05-23 20:24:00,
2013-05-23 16:29:00,76.9,72.1,29.86,SSW,207,12.0,18.0,85,0.00,,---,0.09,VWS V14.01,2013-05-23 20:29:00,
2013-05-23 16:34:00,76.9,72.1,29.86,SW,219,12.0,19.0,85,0.00,,---,0.09,VWS V14.01,2013-05-23 20:34:00,
2013-05-23 16:39:00,76.5,72.0,29.85,SSW,209,17.0,19.0,86,0.00,,---,0.09,VWS V14.01,2013-05-23 20:39:00,
2013-05-23 16:44:00,76.5,72.3,29.85,SSW,204,10.0,19.0,87,0.00,,---,0.09,VWS V14.01,2013-05-23 20:44:00,
2013-05-23 16:49:00,76.6,72.1,29.85,SSW,207,10.0,19.0,86,0.00,,---,0.09,VWS V14.01,2013-05-23 20:49:00,
2013-05-23 16:54:00,76.2,71.7,29.85,SW,215,12.0,19.0,86,0.00,,---,0.09,VWS V14.01,2013-05-23 20:54:00,
2013-05-23 16:59:00,76.0,71.9,29.85,South,189,8.0,16.0,87,0.00,,---,0.09,VWS V14.01,2013-05-23 20:59:00,
2013-05-23 17:05:00,76.0,71.9,29.85,SW,216,12.0,19.0,87,0.00,,---,0.09,VWS V14.01,2013-05-23 21:05:00,
2013-05-23 17:10:00,76.2,72.1,29.85,SW,223,14.0,19.0,87,0.00,,---,0.09,VWS V14.01,2013-05-23 21:10:00,
2013-05-23 17:15:00,76.2,72.1,29.85,SW,216,12.0,19.0,87,0.00,,---,0.09,VWS V14.01,2013-05-23 21:15:00,
2013-05-23 17:20:00,76.3,72.2,29.85,SW,214,13.0,19.0,87,0.00,,---,0.09,VWS V14.01,2013-05-23 21:20:00,
2013-05-23 17:25:00,75.8,71.7,29.85,SW,230,12.0,19.0,87,0.00,,---,0.09,VWS V14.01,2013-05-23 21:25:00,
2013-05-23 17:30:00,75.7,71.9,29.85,SW,233,17.0,22.0,88,0.00,,---,0.09,VWS V14.01,2013-05-23 21:30:00,
2013-05-23 17:35:00,75.3,71.2,29.85,SW,217,20.0,23.0,87,0.00,,---,0.09,VWS V14.01,2013-05-23 21:35:00,
2013-05-23 17:40:00,74.7,70.9,29.85,SW,220,15.0,23.0,88,0.00,,---,0.09,VWS V14.01,2013-05-23 21:40:00,
2013-05-23 17:45:00,74.2,70.8,29.85,SW,230,10.0,23.0,89,0.00,,---,0.09,VWS V14.01,2013-05-23 21:45:00,
2013-05-23 17:50:00,73.9,70.8,29.84,SSW,211,15.0,23.0,90,0.00,,---,0.09,VWS V14.01,2013-05-23 21:50:00,
2013-05-23 17:55:00,73.8,70.7,29.85,SSW,199,13.0,23.0,90,0.00,,---,0.09,VWS V14.01,2013-05-23 21:55:00,
2013-05-23 18:00:00,73.7,70.6,29.85,SW,232,15.0,17.0,90,0.00,,---,0.09,VWS V14.01,2013-05-23 22:00:00,
2013-05-23 18:05:00,73.7,70.9,29.85,SW,225,15.0,20.0,91,0.00,,---,0.09,VWS V14.01,2013-05-23 22:05:00,
2013-05-23 18:10:00,73.8,70.7,29.85,WSW,244,12.0,20.0,90,0.00,,---,0.09,VWS V14.01,2013-05-23 22:10:00,
2013-05-23 18:15:00,73.8,70.7,29.85,SW,215,13.0,20.0,90,0.00,,---,0.09,VWS V14.01,2013-05-23 22:15:00,
2013-05-23 18:20:00,74.0,70.9,29.85,SSW,211,16.0,20.0,90,0.00,,---,0.09,VWS V14.01,2013-05-23 22:20:00,
2013-05-23 18:25:00,74.0,70.9,29.85,SW,232,15.0,20.0,90,0.00,,---,0.09,VWS V14.01,2013-05-23 22:25:00,
2013-05-23 18:30:00,73.9,70.8,29.85,SSW,209,12.0,17.0,90,0.00,,---,0.09,VWS V14.01,2013-05-23 22:30:00,
2013-05-23 18:35:00,73.7,70.9,29.86,SSW,207,12.0,18.0,91,0.00,,---,0.09,VWS V14.01,2013-05-23 22:35:00,
2013-05-23 18:40:00,73.6,70.8,29.86,SW,221,8.0,18.0,91,0.00,,---,0.09,VWS V14.01,2013-05-23 22:40:00,
2013-05-23 18:45:00,73.5,70.7,29.86,SSW,206,7.0,18.0,91,0.00,,---,0.09,VWS V14.01,2013-05-23 22:45:00,
2013-05-23 18:50:00,73.4,70.6,29.86,SW,232,7.0,18.0,91,0.00,,---,0.09,VWS V14.01,2013-05-23 22:50:00,
2013-05-23 18:55:00,73.3,70.5,29.86,WSW,252,7.0,18.0,91,0.00,,---,0.09,VWS V14.01,2013-05-23 22:55:00,
2013-05-23 19:01:00,73.2,70.4,29.86,SW,232,11.0,16.0,91,0.00,,---,0.09,VWS V14.01,2013-05-23 23:01:00,
2013-05-23 19:06:00,73.3,70.5,29.86,SW,231,13.0,17.0,91,0.00,,---,0.09,VWS V14.01,2013-05-23 23:06:00,
2013-05-23 19:11:00,73.4,70.6,29.86,SW,232,12.0,17.0,91,0.00,,---,0.09,VWS V14.01,2013-05-23 23:11:00,
2013-05-23 19:16:00,73.4,70.6,29.85,SSW,201,11.0,17.0,91,0.00,,---,0.09,VWS V14.01,2013-05-23 23:16:00,
2013-05-23 19:21:00,73.4,70.6,29.85,SW,214,10.0,17.0,91,0.00,,---,0.09,VWS V14.01,2013-05-23 23:21:00,
2013-05-23 19:26:00,73.4,70.6,29.86,WSW,249,9.0,17.0,91,0.00,,---,0.09,VWS V14.01,2013-05-23 23:26:00,
2013-05-23 19:31:00,73.1,70.0,29.86,SSW,203,10.0,12.0,90,0.00,,---,0.09,VWS V14.01,2013-05-23 23:31:00,
2013-05-23 19:36:00,73.1,70.3,29.85,SSW,210,12.0,14.0,91,0.00,,---,0.09,VWS V14.01,2013-05-23 23:36:00,
2013-05-23 19:41:00,73.0,70.2,29.85,WSW,257,10.0,14.0,91,0.00,,---,0.09,VWS V14.01,2013-05-23 23:41:00,
2013-05-23 19:46:00,72.9,70.1,29.85,SW,219,12.0,14.0,91,0.00,,---,0.09,VWS V14.01,2013-05-23 23:46:00,
2013-05-23 19:51:00,72.8,70.0,29.85,SW,228,11.0,14.0,91,0.00,,---,0.09,VWS V14.01,2013-05-23 23:51:00,
2013-05-23 19:56:00,72.7,69.9,29.85,WSW,250,11.0,14.0,91,0.00,,---,0.09,VWS V14.01,2013-05-23 23:56:00,
2013-05-23 20:01:00,72.6,69.8,29.86,SSW,213,11.0,15.0,91,0.00,,---,0.09,VWS V14.01,2013-05-24 00:01:00,
2013-05-23 20:06:00,72.5,69.7,29.86,SW,227,6.0,16.0,91,0.00,,---,0.09,VWS V14.01,2013-05-24 00:06:00,
2013-05-23 20:11:00,72.5,69.7,29.85,WSW,251,12.0,16.0,91,0.00,,---,0.09,VWS V14.01,2013-05-24 00:11:00,
2013-05-23 20:16:00,72.4,69.6,29.86,SSW,213,10.0,16.0,91,0.00,,---,0.09,VWS V14.01,2013-05-24 00:16:00,
2013-05-23 20:21:00,72.4,69.6,29.86,WSW,238,7.0,16.0,91,0.00,,---,0.09,VWS V14.01,2013-05-24 00:21:00,
2013-05-23 20:26:00,72.2,69.4,29.85,SSW,201,7.0,16.0,91,0.00,,---,0.09,VWS V14.01,2013-05-24 00:26:00,
2013-05-23 20:31:00,72.2,69.8,29.85,SW,221,11.0,12.0,92,0.00,,---,0.09,VWS V14.01,2013-05-24 00:31:00,
2013-05-23 20:36:00,72.2,69.8,29.86,SW,235,9.0,13.0,92,0.00,,---,0.09,VWS V14.01,2013-05-24 00:36:00,
2013-05-23 20:41:00,72.4,69.9,29.86,WSW,239,10.0,13.0,92,0.00,,---,0.09,VWS V14.01,2013-05-24 00:41:00,
2013-05-23 20:46:00,72.5,70.1,29.86,SW,225,9.0,13.0,92,0.00,,---,0.09,VWS V14.01,2013-05-24 00:46:00,
2013-05-23 20:51:00,72.5,69.7,29.86,SW,228,5.0,13.0,91,0.00,,---,0.09,VWS V14.01,2013-05-24 00:51:00,
2013-05-23 20:56:00,72.3,69.5,29.86,SSW,213,6.0,13.0,91,0.00,,---,0.09,VWS V14.01,2013-05-24 00:56:00,
2013-05-23 21:01:00,72.2,69.4,29.86,SW,234,9.0,11.0,91,0.00,,---,0.09,VWS V14.01,2013-05-24 01:01:00,
2013-05-23 21:06:00,72.1,69.3,29.86,SW,229,8.0,11.0,91,0.00,,---,0.09,VWS V14.01,2013-05-24 01:06:00,
2013-05-23 21:11:00,72.0,69.6,29.86,SW,217,7.0,11.0,92,0.00,,---,0.09,VWS V14.01,2013-05-24 01:11:00,
2013-05-23 21:17:00,72.0,69.6,29.86,SW,228,6.0,11.0,92,0.00,,---,0.09,VWS V14.01,2013-05-24 01:17:00,
2013-05-23 21:22:00,71.9,69.4,29.86,SSW,213,5.0,11.0,92,0.00,,---,0.09,VWS V14.01,2013-05-24 01:22:00,
2013-05-23 21:27:00,71.8,69.3,29.86,SW,219,7.0,11.0,92,0.00,,---,0.09,VWS V14.01,2013-05-24 01:27:00,
2013-05-23 21:32:00,71.9,69.4,29.86,SSW,203,7.0,11.0,92,0.00,,---,0.09,VWS V14.01,2013-05-24 01:32:00,
2013-05-23 21:37:00,71.8,69.3,29.87,SW,229,7.0,11.0,92,0.00,,---,0.09,VWS V14.01,2013-05-24 01:37:00,
2013-05-23 21:42:00,71.8,69.7,29.86,WSW,237,4.0,11.0,93,0.00,,---,0.09,VWS V14.01,2013-05-24 01:42:00,
2013-05-23 21:47:00,71.9,69.8,29.86,SW,234,6.0,11.0,93,0.00,,---,0.09,VWS V14.01,2013-05-24 01:47:00,
2013-05-23 21:52:00,72.0,69.9,29.86,WSW,241,5.0,11.0,93,0.00,,---,0.09,VWS V14.01,2013-05-24 01:52:00,
2013-05-23 21:57:00,72.0,69.9,29.86,SSW,207,7.0,11.0,93,0.00,,---,0.09,VWS V14.01,2013-05-24 01:57:00,
2013-05-23 22:02:00,71.9,69.8,29.86,SW,220,6.0,7.0,93,0.00,,---,0.09,VWS V14.01,2013-05-24 02:02:00,
2013-05-23 22:07:00,71.7,69.6,29.85,SSW,205,5.0,9.0,93,0.00,,---,0.09,VWS V14.01,2013-05-24 02:07:00,
2013-05-23 22:12:00,71.6,69.5,29.85,SSW,201,4.0,9.0,93,0.00,,---,0.09,VWS V14.01,2013-05-24 02:12:00,
2013-05-23 22:17:00,71.5,69.4,29.84,SSW,205,5.0,9.0,93,0.00,,---,0.09,VWS V14.01,2013-05-24 02:17:00,
2013-05-23 22:22:00,71.4,69.3,29.85,SSW,196,7.0,9.0,93,0.00,,---,0.09,VWS V14.01,2013-05-24 02:22:00,
2013-05-23 22:28:00,71.5,69.7,29.85,South,188,6.0,8.0,94,0.00,,---,0.09,VWS V14.01,2013-05-24 02:28:00,
2013-05-23 22:33:00,71.5,69.7,29.84,South,189,4.0,8.0,94,0.00,,---,0.09,VWS V14.01,2013-05-24 02:33:00,
2013-05-23 22:38:00,71.5,69.7,29.85,SSW,194,5.0,8.0,94,0.00,,---,0.09,VWS V14.01,2013-05-24 02:38:00,
2013-05-23 22:43:00,71.6,69.8,29.85,SW,217,4.0,8.0,94,0.00,,---,0.09,VWS V14.01,2013-05-24 02:43:00,
2013-05-23 22:48:00,71.8,70.0,29.85,SW,214,4.0,8.0,94,0.00,,---,0.09,VWS V14.01,2013-05-24 02:48:00,
2013-05-23 22:53:00,71.9,70.1,29.85,SSW,211,5.0,8.0,94,0.00,,---,0.09,VWS V14.01,2013-05-24 02:53:00,
2013-05-23 22:58:00,71.8,70.0,29.85,SSW,209,3.0,4.0,94,0.00,,---,0.09,VWS V14.01,2013-05-24 02:58:00,
2013-05-23 23:03:00,71.6,69.8,29.85,SSW,210,3.0,5.0,94,0.00,,---,0.09,VWS V14.01,2013-05-24 03:03:00,
2013-05-23 23:08:00,71.5,69.7,29.85,SSW,210,3.0,5.0,94,0.00,,---,0.09,VWS V14.01,2013-05-24 03:08:00,
2013-05-23 23:13:00,71.5,70.0,29.85,SSW,202,5.0,6.0,95,0.00,,---,0.09,VWS V14.01,2013-05-24 03:13:00,
2013-05-23 23:18:00,71.4,69.6,29.84,South,187,11.0,11.0,94,0.00,,---,0.09,VWS V14.01,2013-05-24 03:18:00,
2013-05-23 23:23:00,71.4,69.9,29.84,South,186,6.0,11.0,95,0.00,,---,0.09,VWS V14.01,2013-05-24 03:23:00,
2013-05-23 23:28:00,71.4,69.9,29.84,SSW,202,5.0,6.0,95,0.00,,---,0.09,VWS V14.01,2013-05-24 03:28:00,
2013-05-23 23:33:00,71.5,70.0,29.85,SSW,207,4.0,7.0,95,0.00,,---,0.09,VWS V14.01,2013-05-24 03:33:00,
2013-05-23 23:38:00,71.7,70.2,29.85,SW,217,6.0,8.0,95,0.00,,---,0.09,VWS V14.01,2013-05-24 03:38:00,
2013-05-23 23:44:00,71.7,70.2,29.85,South,188,4.0,8.0,95,0.00,,---,0.09,VWS V14.01,2013-05-24 03:44:00,
2013-05-23 23:49:00,71.5,70.0,29.84,SSW,192,4.0,10.0,95,0.00,,---,0.09,VWS V14.01,2013-05-24 03:49:00,
2013-05-23 23:54:00,71.5,70.0,29.84,SSW,210,3.0,10.0,95,0.00,,---,0.09,VWS V14.01,2013-05-24 03:54:00,
2013-05-23 23:59:00,71.4,69.9,29.84,South,181,4.0,6.0,95,0.00,,---,0.00,VWS V14.01,2013-05-24 03:59:00,